createdAt,value
2017-02-03T00:00:59.081Z,624
2017-02-03T00:01:59.598Z,624
2017-02-03T00:03:00.115Z,624
2017-02-03T00:04:00.768Z,624
2017-02-03T00:05:01.156Z,624
2017-02-03T00:06:01.664Z,624
2017-02-03T00:07:02.202Z,608
2017-02-03T00:08:02.699Z,608
2017-02-03T00:09:03.235Z,624
2017-02-03T00:10:03.754Z,624
2017-02-03T00:11:04.306Z,608
2017-02-03T00:12:04.796Z,608
2017-02-03T00:13:05.439Z,624
2017-02-03T00:14:05.957Z,624
2017-02-03T00:15:06.476Z,640
2017-02-03T00:16:06.996Z,640
2017-02-03T00:17:07.378Z,624
2017-02-03T00:18:07.909Z,640
2017-02-03T00:19:08.424Z,624
2017-02-03T00:20:08.927Z,640
2017-02-03T00:21:09.467Z,640
2017-02-03T00:22:09.974Z,640
2017-02-03T00:23:10.485Z,640
2017-02-03T00:24:11.169Z,656
2017-02-03T00:25:11.538Z,656
2017-02-03T00:26:12.041Z,656
2017-02-03T00:27:12.584Z,656
2017-02-03T00:28:13.100Z,656
2017-02-03T00:29:13.911Z,656
2017-02-03T00:30:14.129Z,640
2017-02-03T00:31:14.786Z,640
2017-02-03T00:32:15.307Z,640
2017-02-03T00:33:15.827Z,640
2017-02-03T00:34:16.346Z,640
2017-02-03T00:35:16.873Z,640
2017-02-03T00:36:17.246Z,624
2017-02-03T00:37:17.765Z,640
2017-02-03T00:38:18.438Z,640
2017-02-03T00:39:18.815Z,640
2017-02-03T00:40:19.334Z,640
2017-02-03T00:41:19.853Z,640
2017-02-03T00:42:20.377Z,640
2017-02-03T00:43:21.037Z,640
2017-02-03T00:44:21.552Z,640
2017-02-03T00:45:22.076Z,640
2017-02-03T00:46:22.446Z,624
2017-02-03T00:47:23.111Z,624
2017-02-03T00:48:23.639Z,640
2017-02-03T00:49:24.150Z,624
2017-02-03T00:50:24.665Z,640
2017-02-03T00:51:25.047Z,640
2017-02-03T00:52:25.574Z,640
2017-02-03T00:53:26.083Z,656
2017-02-03T00:54:26.621Z,656
2017-02-03T00:55:27.129Z,656
2017-02-03T00:56:27.789Z,656
2017-02-03T00:57:28.182Z,656
2017-02-03T00:58:28.706Z,656
2017-02-03T00:59:29.352Z,656
2017-02-03T01:00:29.878Z,656
2017-02-03T01:01:30.390Z,656
2017-02-03T01:02:30.902Z,656
2017-02-03T01:03:31.423Z,656
2017-02-03T01:04:31.805Z,656
2017-02-03T01:05:32.324Z,656
2017-02-03T01:06:32.860Z,656
2017-02-03T01:07:33.368Z,656
2017-02-03T01:08:34.019Z,656
2017-02-03T01:09:34.592Z,656
2017-02-03T01:10:35.070Z,656
2017-02-03T01:11:35.450Z,656
2017-02-03T01:12:36.113Z,656
2017-02-03T01:13:36.487Z,656
2017-02-03T01:14:37.143Z,656
2017-02-03T01:15:37.681Z,656
2017-02-03T01:16:38.050Z,656
2017-02-03T01:17:38.561Z,640
2017-02-03T01:18:39.224Z,640
2017-02-03T01:19:39.614Z,656
2017-02-03T01:20:40.268Z,640
2017-02-03T01:21:40.803Z,640
2017-02-03T01:22:41.167Z,656
2017-02-03T01:23:41.844Z,656
2017-02-03T01:24:42.351Z,656
2017-02-03T01:25:42.733Z,672
2017-02-03T01:26:43.261Z,672
2017-02-03T01:27:43.912Z,672
2017-02-03T01:28:44.292Z,672
2017-02-03T01:29:44.809Z,672
2017-02-03T01:30:45.469Z,656
2017-02-03T01:31:45.988Z,672
2017-02-03T01:32:46.504Z,688
2017-02-03T01:33:46.880Z,688
2017-02-03T01:34:47.548Z,768
2017-02-03T01:35:47.927Z,720
2017-02-03T01:36:48.454Z,704
2017-02-03T01:37:48.963Z,704
2017-02-03T01:38:49.640Z,704
2017-02-03T01:39:50.141Z,704
2017-02-03T01:40:50.537Z,704
2017-02-03T01:41:51.186Z,704
2017-02-03T01:42:51.700Z,688
2017-02-03T01:43:52.085Z,688
2017-02-03T01:44:52.594Z,704
2017-02-03T01:45:53.263Z,688
2017-02-03T01:46:53.785Z,688
2017-02-03T01:47:54.307Z,688
2017-02-03T01:48:54.835Z,688
2017-02-03T01:49:55.370Z,688
2017-02-03T01:50:55.861Z,688
2017-02-03T01:51:56.236Z,672
2017-02-03T01:52:56.777Z,688
2017-02-03T01:53:57.431Z,672
2017-02-03T01:54:57.953Z,656
2017-02-03T01:55:58.321Z,672
2017-02-03T01:56:58.842Z,672
2017-02-03T01:57:59.501Z,672
2017-02-03T01:58:59.894Z,656
2017-02-03T02:00:00.547Z,656
2017-02-03T02:01:01.057Z,656
2017-02-03T02:02:01.442Z,656
2017-02-03T02:03:01.977Z,656
2017-02-03T02:04:02.493Z,656
2017-02-03T02:05:03.020Z,656
2017-02-03T02:06:03.542Z,640
2017-02-03T02:07:04.067Z,640
2017-02-03T02:08:04.580Z,640
2017-02-03T02:09:05.107Z,640
2017-02-03T02:10:05.758Z,640
2017-02-03T02:11:06.154Z,640
2017-02-03T02:12:06.803Z,640
2017-02-03T02:13:07.191Z,640
2017-02-03T02:14:07.708Z,640
2017-02-03T02:15:08.216Z,640
2017-02-03T02:16:08.878Z,640
2017-02-03T02:17:09.401Z,640
2017-02-03T02:18:09.914Z,640
2017-02-03T02:19:10.292Z,640
2017-02-03T02:20:10.808Z,624
2017-02-03T02:21:11.472Z,624
2017-02-03T02:22:11.848Z,624
2017-02-03T02:23:12.566Z,624
2017-02-03T02:24:13.035Z,624
2017-02-03T02:25:13.553Z,624
2017-02-03T02:26:14.074Z,640
2017-02-03T02:27:14.600Z,640
2017-02-03T02:28:15.117Z,640
2017-02-03T02:29:15.635Z,640
2017-02-03T02:30:16.307Z,640
2017-02-03T02:31:16.546Z,656
2017-02-03T02:32:17.196Z,656
2017-02-03T02:33:17.717Z,640
2017-02-03T02:34:18.234Z,640
2017-02-03T02:35:18.609Z,640
2017-02-03T02:36:19.127Z,640
2017-02-03T02:37:19.653Z,640
2017-02-03T02:38:20.310Z,656
2017-02-03T02:39:20.828Z,656
2017-02-03T02:40:21.347Z,640
2017-02-03T02:41:21.885Z,656
2017-02-03T02:42:22.254Z,640
2017-02-03T02:43:22.907Z,640
2017-02-03T02:44:23.435Z,656
2017-02-03T02:45:23.966Z,640
2017-02-03T02:46:24.329Z,656
2017-02-03T02:47:24.997Z,640
2017-02-03T02:48:25.378Z,640
2017-02-03T02:49:26.048Z,640
2017-02-03T02:50:26.424Z,656
2017-02-03T02:51:27.092Z,656
2017-02-03T02:52:27.604Z,656
2017-02-03T02:53:28.115Z,656
2017-02-03T02:54:28.547Z,656
2017-02-03T02:55:29.009Z,656
2017-02-03T02:56:29.671Z,640
2017-02-03T02:57:30.062Z,672
2017-02-03T02:58:30.583Z,672
2017-02-03T02:59:31.233Z,656
2017-02-03T03:00:31.753Z,672
2017-02-03T03:01:32.145Z,688
2017-02-03T03:02:32.657Z,672
2017-02-03T03:03:33.315Z,672
2017-02-03T03:04:33.827Z,672
2017-02-03T03:05:34.199Z,656
2017-02-03T03:06:34.868Z,672
2017-02-03T03:07:35.255Z,672
2017-02-03T03:08:35.764Z,656
2017-02-03T03:09:36.292Z,656
2017-02-03T03:10:37.100Z,656
2017-02-03T03:11:37.460Z,656
2017-02-03T03:12:37.837Z,656
2017-02-03T03:13:38.350Z,656
2017-02-03T03:14:38.883Z,656
2017-02-03T03:15:39.547Z,656
2017-02-03T03:16:39.920Z,640
2017-02-03T03:17:40.438Z,640
2017-02-03T03:18:41.091Z,656
2017-02-03T03:19:41.612Z,640
2017-02-03T03:20:41.999Z,640
2017-02-03T03:21:42.657Z,656
2017-02-03T03:22:43.170Z,640
2017-02-03T03:23:43.684Z,640
2017-02-03T03:24:44.213Z,640
2017-02-03T03:25:44.626Z,640
2017-02-03T03:26:45.122Z,640
2017-02-03T03:27:45.778Z,640
2017-02-03T03:28:46.300Z,640
2017-02-03T03:29:46.819Z,640
2017-02-03T03:30:47.204Z,640
2017-02-03T03:31:47.860Z,640
2017-02-03T03:32:48.387Z,656
2017-02-03T03:33:48.915Z,640
2017-02-03T03:34:49.313Z,640
2017-02-03T03:35:49.944Z,640
2017-02-03T03:36:50.467Z,640
2017-02-03T03:37:50.841Z,640
2017-02-03T03:38:51.504Z,624
2017-02-03T03:39:52.050Z,624
2017-02-03T03:40:52.392Z,624
2017-02-03T03:41:53.070Z,640
2017-02-03T03:42:53.448Z,624
2017-02-03T03:43:53.949Z,624
2017-02-03T03:44:54.475Z,624
2017-02-03T03:45:54.997Z,608
2017-02-03T03:46:55.653Z,608
2017-02-03T03:47:56.039Z,608
2017-02-03T03:48:56.556Z,640
2017-02-03T03:49:57.312Z,624
2017-02-03T03:50:57.730Z,624
2017-02-03T03:51:58.257Z,624
2017-02-03T03:52:58.771Z,624
2017-02-03T03:53:59.287Z,624
2017-02-03T03:54:59.660Z,624
2017-02-03T03:56:00.319Z,624
2017-02-03T03:57:00.850Z,624
2017-02-03T03:58:01.364Z,624
2017-02-03T03:59:01.893Z,608
2017-02-03T04:00:02.421Z,608
2017-02-03T04:01:02.927Z,624
2017-02-03T04:02:03.297Z,624
2017-02-03T04:03:03.826Z,624
2017-02-03T04:04:04.480Z,624
2017-02-03T04:05:04.874Z,624
2017-02-03T04:06:05.383Z,624
2017-02-03T04:07:05.907Z,624
2017-02-03T04:08:06.564Z,624
2017-02-03T04:09:07.088Z,640
2017-02-03T04:10:07.480Z,640
2017-02-03T04:11:08.016Z,640
2017-02-03T04:12:08.509Z,640
2017-02-03T04:13:09.180Z,640
2017-02-03T04:14:09.562Z,640
2017-02-03T04:15:10.219Z,640
2017-02-03T04:16:10.733Z,640
2017-02-03T04:17:11.260Z,624
2017-02-03T04:18:11.648Z,640
2017-02-03T04:19:12.167Z,640
2017-02-03T04:20:12.689Z,640
2017-02-03T04:21:13.186Z,640
2017-02-03T04:22:13.728Z,656
2017-02-03T04:23:14.386Z,640
2017-02-03T04:24:14.767Z,656
2017-02-03T04:25:15.418Z,656
2017-02-03T04:26:15.791Z,656
2017-02-03T04:27:16.460Z,656
2017-02-03T04:28:16.959Z,656
2017-02-03T04:29:17.482Z,656
2017-02-03T04:30:18.300Z,656
2017-02-03T04:31:18.537Z,672
2017-02-03T04:32:19.041Z,672
2017-02-03T04:33:19.559Z,672
2017-02-03T04:34:20.081Z,672
2017-02-03T04:35:20.599Z,672
2017-02-03T04:36:21.127Z,672
2017-02-03T04:37:21.639Z,672
2017-02-03T04:38:22.153Z,672
2017-02-03T04:39:22.672Z,672
2017-02-03T04:40:23.047Z,672
2017-02-03T04:41:23.708Z,688
2017-02-03T04:42:24.225Z,672
2017-02-03T04:43:24.605Z,672
2017-02-03T04:44:25.263Z,656
2017-02-03T04:45:25.647Z,672
2017-02-03T04:46:26.304Z,672
2017-02-03T04:47:26.823Z,672
2017-02-03T04:48:27.206Z,656
2017-02-03T04:49:27.863Z,656
2017-02-03T04:50:28.380Z,656
2017-02-03T04:51:28.910Z,656
2017-02-03T04:52:29.446Z,656
2017-02-03T04:53:29.955Z,656
2017-02-03T04:54:30.339Z,672
2017-02-03T04:55:30.855Z,656
2017-02-03T04:56:31.367Z,656
2017-02-03T04:57:32.037Z,656
2017-02-03T04:58:32.555Z,656
2017-02-03T04:59:32.947Z,656
2017-02-03T05:00:33.595Z,656
2017-02-03T05:01:33.976Z,656
2017-02-03T05:02:34.636Z,672
2017-02-03T05:03:35.155Z,672
2017-02-03T05:04:35.547Z,672
2017-02-03T05:05:36.230Z,672
2017-02-03T05:06:36.707Z,672
2017-02-03T05:07:37.089Z,656
2017-02-03T05:08:37.749Z,672
2017-02-03T05:09:38.270Z,688
2017-02-03T05:10:38.950Z,672
2017-02-03T05:11:39.310Z,672
2017-02-03T05:12:39.833Z,672
2017-02-03T05:13:40.354Z,688
2017-02-03T05:14:40.868Z,672
2017-02-03T05:15:41.412Z,688
2017-02-03T05:16:41.906Z,672
2017-02-03T05:17:42.290Z,672
2017-02-03T05:18:42.817Z,672
2017-02-03T05:19:43.334Z,672
2017-02-03T05:20:43.997Z,672
2017-02-03T05:21:44.357Z,672
2017-02-03T05:22:44.886Z,672
2017-02-03T05:23:45.544Z,688
2017-02-03T05:24:46.074Z,688
2017-02-03T05:25:46.435Z,688
2017-02-03T05:26:46.953Z,688
2017-02-03T05:27:47.626Z,688
2017-02-03T05:28:48.010Z,672
2017-02-03T05:29:48.520Z,672
2017-02-03T05:30:49.178Z,688
2017-02-03T05:31:49.570Z,672
2017-02-03T05:32:50.095Z,688
2017-02-03T05:33:50.620Z,672
2017-02-03T05:34:51.273Z,672
2017-02-03T05:35:51.660Z,672
2017-02-03T05:36:52.314Z,688
2017-02-03T05:37:52.703Z,688
2017-02-03T05:38:53.369Z,672
2017-02-03T05:39:53.739Z,688
2017-02-03T05:40:54.296Z,672
2017-02-03T05:41:54.780Z,672
2017-02-03T05:42:55.302Z,672
2017-02-03T05:43:55.829Z,688
2017-02-03T05:44:56.345Z,672
2017-02-03T05:45:56.859Z,672
2017-02-03T05:46:57.382Z,672
2017-02-03T05:47:57.930Z,704
2017-02-03T05:48:58.553Z,688
2017-02-03T05:49:59.074Z,672
2017-02-03T05:50:59.748Z,672
2017-02-03T05:51:59.981Z,688
2017-02-03T05:53:00.636Z,688
2017-02-03T05:54:01.017Z,688
2017-02-03T05:55:01.672Z,688
2017-02-03T05:56:02.051Z,688
2017-02-03T05:57:02.581Z,672
2017-02-03T05:58:03.235Z,688
2017-02-03T05:59:03.748Z,672
2017-02-03T06:00:04.135Z,672
2017-02-03T06:01:04.785Z,688
2017-02-03T06:02:05.307Z,688
2017-02-03T06:03:05.704Z,688
2017-02-03T06:04:06.207Z,688
2017-02-03T06:05:06.734Z,688
2017-02-03T06:06:07.380Z,672
2017-02-03T06:07:07.897Z,688
2017-02-03T06:08:08.285Z,688
2017-02-03T06:09:08.937Z,672
2017-02-03T06:10:09.480Z,688
2017-02-03T06:11:09.976Z,688
2017-02-03T06:12:10.500Z,688
2017-02-03T06:13:11.017Z,704
2017-02-03T06:14:11.537Z,688
2017-02-03T06:15:12.058Z,688
2017-02-03T06:16:12.470Z,688
2017-02-03T06:17:12.993Z,688
2017-02-03T06:18:13.635Z,688
2017-02-03T06:19:14.010Z,688
2017-02-03T06:20:14.668Z,688
2017-02-03T06:21:15.202Z,688
2017-02-03T06:22:15.712Z,672
2017-02-03T06:23:16.285Z,672
2017-02-03T06:24:16.753Z,672
2017-02-03T06:25:17.283Z,656
2017-02-03T06:26:17.652Z,672
2017-02-03T06:27:18.309Z,672
2017-02-03T06:28:18.696Z,688
2017-02-03T06:29:19.225Z,672
2017-02-03T06:30:19.725Z,656
2017-02-03T06:31:20.542Z,656
2017-02-03T06:32:20.772Z,672
2017-02-03T06:33:21.300Z,688
2017-02-03T06:34:21.965Z,672
2017-02-03T06:35:22.341Z,656
2017-02-03T06:36:22.999Z,656
2017-02-03T06:37:23.380Z,656
2017-02-03T06:38:23.897Z,656
2017-02-03T06:39:24.566Z,656
2017-02-03T06:40:24.961Z,656
2017-02-03T06:41:25.469Z,656
2017-02-03T06:42:26.007Z,656
2017-02-03T06:43:26.515Z,656
2017-02-03T06:44:27.050Z,656
2017-02-03T06:45:27.564Z,656
2017-02-03T06:46:28.245Z,656
2017-02-03T06:47:28.608Z,656
2017-02-03T06:48:29.140Z,656
2017-02-03T06:49:29.801Z,656
2017-02-03T06:50:30.189Z,656
2017-02-03T06:51:30.705Z,656
2017-02-03T06:52:31.229Z,656
2017-02-03T06:53:31.762Z,656
2017-02-03T06:54:32.267Z,656
2017-02-03T06:55:32.784Z,656
2017-02-03T06:56:33.323Z,656
2017-02-03T06:57:33.840Z,656
2017-02-03T06:58:34.504Z,656
2017-02-03T06:59:35.032Z,656
2017-02-03T07:00:35.563Z,656
2017-02-03T07:01:35.936Z,656
2017-02-03T07:02:36.459Z,656
2017-02-03T07:03:37.128Z,656
2017-02-03T07:04:37.517Z,656
2017-02-03T07:05:38.032Z,656
2017-02-03T07:06:38.562Z,656
2017-02-03T07:07:39.084Z,656
2017-02-03T07:08:39.594Z,656
2017-02-03T07:09:40.144Z,656
2017-02-03T07:10:40.666Z,656
2017-02-03T07:11:41.365Z,656
2017-02-03T07:12:41.713Z,656
2017-02-03T07:13:42.383Z,656
2017-02-03T07:14:42.754Z,656
2017-02-03T07:15:43.411Z,656
2017-02-03T07:16:43.802Z,656
2017-02-03T07:17:44.334Z,656
2017-02-03T07:18:45.000Z,656
2017-02-03T07:19:45.535Z,656
2017-02-03T07:20:45.924Z,656
2017-02-03T07:21:46.464Z,656
2017-02-03T07:22:46.964Z,656
2017-02-03T07:23:47.640Z,656
2017-02-03T07:24:48.026Z,656
2017-02-03T07:25:48.543Z,656
2017-02-03T07:26:49.083Z,656
2017-02-03T07:27:49.600Z,656
2017-02-03T07:28:50.172Z,656
2017-02-03T07:29:50.668Z,656
2017-02-03T07:30:51.188Z,656
2017-02-03T07:31:51.737Z,656
2017-02-03T07:32:52.393Z,656
2017-02-03T07:33:52.782Z,656
2017-02-03T07:34:53.437Z,656
2017-02-03T07:35:53.951Z,656
2017-02-03T07:36:54.322Z,656
2017-02-03T07:37:54.877Z,656
2017-02-03T07:38:55.427Z,656
2017-02-03T07:39:55.926Z,656
2017-02-03T07:40:56.457Z,656
2017-02-03T07:41:56.958Z,656
2017-02-03T07:42:57.624Z,656
2017-02-03T07:43:57.996Z,656
2017-02-03T07:44:58.523Z,656
2017-02-03T07:45:59.041Z,656
2017-02-03T07:46:59.715Z,656
2017-02-03T07:48:00.087Z,656
2017-02-03T07:49:00.769Z,656
2017-02-03T07:50:01.290Z,656
2017-02-03T07:51:01.804Z,656
2017-02-03T07:52:02.484Z,656
2017-02-03T07:53:02.707Z,656
2017-02-03T07:54:03.234Z,656
2017-02-03T07:55:03.890Z,656
2017-02-03T07:56:04.280Z,656
2017-02-03T07:57:04.797Z,656
2017-02-03T07:58:05.456Z,656
2017-02-03T07:59:05.848Z,656
2017-02-03T08:00:06.364Z,656
2017-02-03T08:01:07.021Z,656
2017-02-03T08:02:07.541Z,656
2017-02-03T08:03:07.922Z,656
2017-02-03T08:04:08.601Z,656
2017-02-03T08:05:08.967Z,656
2017-02-03T08:06:09.496Z,656
2017-02-03T08:07:10.151Z,656
2017-02-03T08:08:10.524Z,656
2017-02-03T08:09:11.204Z,656
2017-02-03T08:10:11.578Z,656
2017-02-03T08:11:12.117Z,656
2017-02-03T08:12:12.639Z,656
2017-02-03T08:13:13.324Z,656
2017-02-03T08:14:13.833Z,656
2017-02-03T08:15:14.226Z,656
2017-02-03T08:16:14.762Z,656
2017-02-03T08:17:15.419Z,656
2017-02-03T08:18:15.941Z,656
2017-02-03T08:19:16.469Z,656
2017-02-03T08:20:16.983Z,656
2017-02-03T08:21:17.376Z,656
2017-02-03T08:22:17.887Z,656
2017-02-03T08:23:18.556Z,656
2017-02-03T08:24:18.936Z,656
2017-02-03T08:25:19.598Z,656
2017-02-03T08:26:19.979Z,656
2017-02-03T08:27:20.494Z,656
2017-02-03T08:28:21.156Z,656
2017-02-03T08:29:21.678Z,656
2017-02-03T08:30:22.092Z,656
2017-02-03T08:31:22.718Z,656
2017-02-03T08:32:23.268Z,656
2017-02-03T08:33:23.760Z,656
2017-02-03T08:34:24.151Z,656
2017-02-03T08:35:24.692Z,656
2017-02-03T08:36:25.344Z,656
2017-02-03T08:37:25.715Z,656
2017-02-03T08:38:26.359Z,656
2017-02-03T08:39:26.894Z,656
2017-02-03T08:40:27.408Z,656
2017-02-03T08:41:27.932Z,672
2017-02-03T08:42:28.448Z,656
2017-02-03T08:43:28.829Z,672
2017-02-03T08:44:29.503Z,672
2017-02-03T08:45:30.010Z,672
2017-02-03T08:46:30.402Z,688
2017-02-03T08:47:30.893Z,704
2017-02-03T08:48:31.434Z,704
2017-02-03T08:49:32.098Z,688
2017-02-03T08:50:32.600Z,688
2017-02-03T08:51:33.123Z,688
2017-02-03T08:52:33.636Z,688
2017-02-03T08:53:34.026Z,704
2017-02-03T08:54:34.530Z,704
2017-02-03T08:55:35.196Z,688
2017-02-03T08:56:35.716Z,688
2017-02-03T08:57:36.235Z,688
2017-02-03T08:58:36.631Z,688
2017-02-03T08:59:37.283Z,688
2017-02-03T09:00:37.661Z,688
2017-02-03T09:01:38.182Z,704
2017-02-03T09:02:38.701Z,704
2017-02-03T09:03:39.237Z,688
2017-02-03T09:04:39.888Z,688
2017-02-03T09:05:40.409Z,688
2017-02-03T09:06:40.926Z,688
2017-02-03T09:07:41.307Z,688
2017-02-03T09:08:41.983Z,688
2017-02-03T09:09:42.343Z,688
2017-02-03T09:10:43.005Z,688
2017-02-03T09:11:43.524Z,688
2017-02-03T09:12:43.938Z,688
2017-02-03T09:13:44.579Z,688
2017-02-03T09:14:45.076Z,688
2017-02-03T09:15:45.473Z,704
2017-02-03T09:16:45.968Z,704
2017-02-03T09:17:46.496Z,688
2017-02-03T09:18:47.167Z,688
2017-02-03T09:19:47.559Z,688
2017-02-03T09:20:48.204Z,688
2017-02-03T09:21:48.582Z,688
2017-02-03T09:22:49.109Z,704
2017-02-03T09:23:49.629Z,704
2017-02-03T09:24:50.140Z,704
2017-02-03T09:25:50.656Z,704
2017-02-03T09:26:51.319Z,704
2017-02-03T09:27:51.702Z,704
2017-02-03T09:28:52.347Z,704
2017-02-03T09:29:52.872Z,688
2017-02-03T09:30:53.255Z,704
2017-02-03T09:31:53.910Z,704
2017-02-03T09:32:54.280Z,704
2017-02-03T09:33:54.811Z,688
2017-02-03T09:34:55.462Z,704
2017-02-03T09:35:55.985Z,688
2017-02-03T09:36:56.498Z,688
2017-02-03T09:37:56.875Z,672
2017-02-03T09:38:57.546Z,688
2017-02-03T09:39:58.065Z,688
2017-02-03T09:40:58.589Z,688
2017-02-03T09:41:58.962Z,688
2017-02-03T09:42:59.627Z,704
2017-02-03T09:44:00.006Z,704
2017-02-03T09:45:00.542Z,704
2017-02-03T09:46:01.196Z,704
2017-02-03T09:47:01.720Z,704
2017-02-03T09:48:02.238Z,704
2017-02-03T09:49:02.618Z,704
2017-02-03T09:50:03.138Z,704
2017-02-03T09:51:03.793Z,704
2017-02-03T09:52:04.314Z,704
2017-02-03T09:53:04.851Z,704
2017-02-03T09:54:05.512Z,704
2017-02-03T09:55:05.736Z,720
2017-02-03T09:56:06.395Z,736
2017-02-03T09:57:06.778Z,736
2017-02-03T09:58:07.292Z,736
2017-02-03T09:59:07.948Z,720
2017-02-03T10:00:08.336Z,720
2017-02-03T10:01:08.849Z,704
2017-02-03T10:02:09.371Z,704
2017-02-03T10:03:09.899Z,704
2017-02-03T10:04:10.551Z,704
2017-02-03T10:05:10.940Z,704
2017-02-03T10:06:11.590Z,688
2017-02-03T10:07:12.108Z,688
2017-02-03T10:08:12.496Z,688
2017-02-03T10:09:13.161Z,688
2017-02-03T10:10:13.684Z,688
2017-02-03T10:11:14.195Z,688
2017-02-03T10:12:14.576Z,704
2017-02-03T10:13:15.226Z,688
2017-02-03T10:14:15.784Z,688
2017-02-03T10:15:16.121Z,688
2017-02-03T10:16:16.632Z,704
2017-02-03T10:17:17.302Z,672
2017-02-03T10:19:18.217Z,688
2017-02-03T10:20:18.863Z,688
2017-02-03T10:21:19.241Z,672
2017-02-03T10:22:19.772Z,688
2017-02-03T10:23:20.298Z,688
2017-02-03T10:24:20.815Z,704
2017-02-03T10:25:21.340Z,704
2017-02-03T10:26:21.994Z,720
2017-02-03T10:27:22.516Z,704
2017-02-03T10:28:23.041Z,704
2017-02-03T10:29:23.432Z,720
2017-02-03T10:30:24.084Z,720
2017-02-03T10:31:24.476Z,736
2017-02-03T10:32:24.991Z,736
2017-02-03T10:33:25.541Z,736
2017-02-03T10:34:26.323Z,736
2017-02-03T10:35:26.552Z,736
2017-02-03T10:36:27.072Z,720
2017-02-03T10:37:27.589Z,720
2017-02-03T10:38:28.112Z,720
2017-02-03T10:39:28.768Z,720
2017-02-03T10:40:29.284Z,720
2017-02-03T10:41:29.667Z,720
2017-02-03T10:42:30.179Z,704
2017-02-03T10:43:30.699Z,720
2017-02-03T10:44:31.360Z,720
2017-02-03T10:45:31.882Z,720
2017-02-03T10:46:32.257Z,704
2017-02-03T10:47:32.913Z,704
2017-02-03T10:48:33.442Z,704
2017-02-03T10:49:33.957Z,704
2017-02-03T10:50:34.475Z,704
2017-02-03T10:51:34.869Z,704
2017-02-03T10:52:35.514Z,720
2017-02-03T10:53:36.035Z,720
2017-02-03T10:54:36.565Z,704
2017-02-03T10:55:37.071Z,704
2017-02-03T10:56:37.441Z,704
2017-02-03T10:57:38.136Z,704
2017-02-03T10:58:38.499Z,704
2017-02-03T10:59:39.019Z,704
2017-02-03T11:00:39.670Z,720
2017-02-03T11:01:40.041Z,720
2017-02-03T11:02:40.705Z,720
2017-02-03T11:03:41.096Z,736
2017-02-03T11:04:41.605Z,720
2017-02-03T11:05:42.269Z,720
2017-02-03T11:06:42.651Z,720
2017-02-03T11:07:43.321Z,720
2017-02-03T11:08:43.706Z,720
2017-02-03T11:09:44.232Z,720
2017-02-03T11:10:44.879Z,720
2017-02-03T11:11:45.396Z,720
2017-02-03T11:12:45.795Z,720
2017-02-03T11:13:46.314Z,720
2017-02-03T11:14:47.112Z,720
2017-02-03T11:15:47.484Z,720
2017-02-03T11:16:47.868Z,720
2017-02-03T11:17:48.522Z,736
2017-02-03T11:18:48.905Z,736
2017-02-03T11:19:49.561Z,736
2017-02-03T11:20:49.952Z,736
2017-02-03T11:21:50.612Z,752
2017-02-03T11:22:51.116Z,768
2017-02-03T11:23:51.638Z,736
2017-02-03T11:24:52.014Z,720
2017-02-03T11:25:52.528Z,720
2017-02-03T11:26:53.063Z,704
2017-02-03T11:27:53.707Z,704
2017-02-03T11:28:54.117Z,720
2017-02-03T11:29:54.768Z,720
2017-02-03T11:30:55.277Z,720
2017-02-03T11:31:55.665Z,704
2017-02-03T11:32:56.317Z,704
2017-02-03T11:33:56.834Z,720
2017-02-03T11:34:57.225Z,720
2017-02-03T11:35:57.875Z,720
2017-02-03T11:36:58.250Z,736
2017-02-03T11:37:58.923Z,752
2017-02-03T11:38:59.295Z,736
2017-02-03T11:39:59.825Z,736
2017-02-03T11:41:00.346Z,736
2017-02-03T11:42:00.990Z,736
2017-02-03T11:43:01.384Z,752
2017-02-03T11:44:02.021Z,752
2017-02-03T11:45:02.417Z,752
2017-02-03T11:46:02.916Z,752
2017-02-03T11:47:03.449Z,736
2017-02-03T11:48:04.106Z,736
2017-02-03T11:49:04.494Z,736
2017-02-03T11:50:05.152Z,720
2017-02-03T11:51:05.672Z,720
2017-02-03T11:52:06.197Z,736
2017-02-03T11:53:06.591Z,736
2017-02-03T11:54:07.237Z,720
2017-02-03T11:55:07.784Z,720
2017-02-03T11:56:08.297Z,720
2017-02-03T11:57:08.805Z,720
2017-02-03T11:58:09.337Z,720
2017-02-03T11:59:09.699Z,720
2017-02-03T12:00:10.235Z,720
2017-02-03T12:01:10.744Z,720
2017-02-03T12:02:11.396Z,736
2017-02-03T12:03:11.923Z,736
2017-02-03T12:04:12.439Z,736
2017-02-03T12:05:12.959Z,736
2017-02-03T12:06:13.345Z,720
2017-02-03T12:07:13.857Z,736
2017-02-03T12:08:14.518Z,736
2017-02-03T12:09:15.040Z,736
2017-02-03T12:10:15.425Z,752
2017-02-03T12:11:16.077Z,752
2017-02-03T12:12:16.593Z,768
2017-02-03T12:13:17.123Z,752
2017-02-03T12:14:17.490Z,752
2017-02-03T12:15:18.156Z,736
2017-02-03T12:16:18.547Z,752
2017-02-03T12:17:19.203Z,768
2017-02-03T12:18:19.586Z,752
2017-02-03T12:19:20.097Z,752
2017-02-03T12:20:20.761Z,752
2017-02-03T12:21:21.147Z,752
2017-02-03T12:22:21.789Z,752
2017-02-03T12:23:22.312Z,736
2017-02-03T12:24:22.821Z,736
2017-02-03T12:25:23.347Z,736
2017-02-03T12:26:23.866Z,736
2017-02-03T12:27:24.245Z,736
2017-02-03T12:28:24.771Z,736
2017-02-03T12:29:25.284Z,720
2017-02-03T12:30:25.944Z,736
2017-02-03T12:31:26.467Z,736
2017-02-03T12:32:26.864Z,720
2017-02-03T12:33:27.528Z,720
2017-02-03T12:34:28.031Z,720
2017-02-03T12:35:28.451Z,720
2017-02-03T12:36:29.217Z,736
2017-02-03T12:37:29.446Z,736
2017-02-03T12:38:30.101Z,736
2017-02-03T12:39:30.496Z,736
2017-02-03T12:40:31.153Z,736
2017-02-03T12:41:31.662Z,736
2017-02-03T12:42:32.178Z,736
2017-02-03T12:43:32.701Z,736
2017-02-03T12:44:33.241Z,752
2017-02-03T12:45:33.751Z,768
2017-02-03T12:46:34.271Z,768
2017-02-03T12:47:34.782Z,768
2017-02-03T12:48:35.148Z,768
2017-02-03T12:49:35.680Z,768
2017-02-03T12:50:36.204Z,752
2017-02-03T12:51:36.708Z,752
2017-02-03T12:52:37.233Z,768
2017-02-03T12:53:37.925Z,784
2017-02-03T12:54:38.431Z,768
2017-02-03T12:55:38.805Z,768
2017-02-03T12:56:39.461Z,768
2017-02-03T12:57:39.842Z,768
2017-02-03T12:58:40.500Z,768
2017-02-03T12:59:40.884Z,768
2017-02-03T13:01:42.066Z,752
2017-02-03T13:02:42.583Z,768
2017-02-03T13:03:43.102Z,752
2017-02-03T13:04:43.619Z,752
2017-02-03T13:05:44.141Z,752
2017-02-03T13:06:44.659Z,768
2017-02-03T13:07:45.178Z,768
2017-02-03T13:08:45.692Z,752
2017-02-03T13:09:46.214Z,768
2017-02-03T13:10:46.585Z,768
2017-02-03T13:11:47.123Z,752
2017-02-03T13:12:47.792Z,752
2017-02-03T13:13:48.310Z,752
2017-02-03T13:14:48.827Z,752
2017-02-03T13:15:49.223Z,736
2017-02-03T13:16:50.035Z,784
2017-02-03T13:17:50.387Z,784
2017-02-03T13:18:50.778Z,784
2017-02-03T13:19:51.297Z,768
2017-02-03T13:20:51.812Z,768
2017-02-03T13:21:52.615Z,768
2017-02-03T13:22:52.982Z,768
2017-02-03T13:23:53.507Z,768
2017-02-03T13:24:54.025Z,768
2017-02-03T13:25:54.410Z,768
2017-02-03T13:26:54.935Z,768
2017-02-03T13:27:55.643Z,768
2017-02-03T13:28:55.976Z,784
2017-02-03T13:29:56.626Z,784
2017-02-03T13:30:56.989Z,784
2017-02-03T13:31:57.517Z,784
2017-02-03T13:32:58.033Z,784
2017-02-03T13:33:58.571Z,800
2017-02-03T13:34:59.226Z,784
2017-02-03T13:35:59.739Z,784
2017-02-03T13:37:00.130Z,816
2017-02-03T13:38:00.634Z,800
2017-02-03T13:39:01.295Z,800
2017-02-03T13:40:01.821Z,800
2017-02-03T13:41:02.336Z,784
2017-02-03T13:42:02.864Z,784
2017-02-03T13:43:03.375Z,784
2017-02-03T13:44:03.764Z,768
2017-02-03T13:45:04.425Z,784
2017-02-03T13:46:04.801Z,752
2017-02-03T13:47:05.488Z,752
2017-02-03T13:48:05.973Z,752
2017-02-03T13:49:06.538Z,768
2017-02-03T13:50:06.867Z,752
2017-02-03T13:51:07.524Z,752
2017-02-03T13:52:07.904Z,768
2017-02-03T13:53:08.576Z,768
2017-02-03T13:54:09.102Z,768
2017-02-03T13:55:09.628Z,768
2017-02-03T13:56:09.996Z,752